Jurien, Australia
Current Conditions -  °F | °C
As of 8:30 AM on Friday 19 Dec 2014 (Local Time) from YGEL Reporting Station
Clear Clear  
Wind Chill: 79°   Ceiling: Unl
Heat Index: 80°   Visibility: 6mi
Dew Point: 57°   Wind: 7mph
Humidity: 47%   Direction: 190°S
Pressure: 29.8"   Gusts: NA
Location:  30.31°S, 115.03°E
Report Text: YGEL 190030Z 19006KT CAVOK 26/14 Q1009
Loading
Personal Weather Stations






























Interactive Weather Map New forecast layout! Learn more

10-Day Weather Forecast

Advertisements
Track Severe Weather on mobile